sensor_id;sensor_type;location;lat;lon;timestamp;P1;durP1;ratioP1;P2;durP2;ratioP2
5674;SDS011;2860;54.284;10.158;2024-03-07T00:00:11;31.80;;;17.48;;
5674;SDS011;2860;54.284;10.158;2024-03-07T00:02:44;30.08;;;18.05;;
5674;SDS011;2860;54.284;10.158;2024-03-07T00:05:15;37.42;;;17.85;;
5674;SDS011;2860;54.284;10.158;2024-03-07T00:07:41;27.08;;;16.63;;
5674;SDS011;2860;54.284;10.158;2024-03-07T00:10:08;34.15;;;17.17;;
5674;SDS011;2860;54.284;10.158;2024-03-07T00:12:34;24.63;;;14.75;;
5674;SDS011;2860;54.284;10.158;2024-03-07T00:15:05;27.25;;;16.90;;
5674;SDS011;2860;54.284;10.158;2024-03-07T00:17:35;27.20;;;16.23;;
5674;SDS011;2860;54.284;10.158;2024-03-07T00:20:02;28.95;;;17.05;;
5674;SDS011;2860;54.284;10.158;2024-03-07T00:22:37;33.00;;;16.90;;
5674;SDS011;2860;54.284;10.158;2024-03-07T00:25:03;28.55;;;17.33;;
5674;SDS011;2860;54.284;10.158;2024-03-07T00:27:30;40.05;;;17.17;;
5674;SDS011;2860;54.284;10.158;2024-03-07T00:29:56;26.45;;;16.10;;
5674;SDS011;2860;54.284;10.158;2024-03-07T00:32:23;33.75;;;17.90;;
5674;SDS011;2860;54.284;10.158;2024-03-07T00:34:49;28.02;;;16.98;;
5674;SDS011;2860;54.284;10.158;2024-03-07T00:37:15;27.10;;;18.38;;
5674;SDS011;2860;54.284;10.158;2024-03-07T00:39:41;28.55;;;16.15;;
5674;SDS011;2860;54.284;10.158;2024-03-07T00:42:07;28.80;;;18.10;;
5674;SDS011;2860;54.284;10.158;2024-03-07T00:44:33;27.30;;;17.05;;
5674;SDS011;2860;54.284;10.158;2024-03-07T00:47:02;31.08;;;18.13;;
5674;SDS011;2860;54.284;10.158;2024-03-07T00:49:28;24.05;;;16.00;;
5674;SDS011;2860;54.284;10.158;2024-03-07T00:51:55;27.00;;;16.52;;
5674;SDS011;2860;54.284;10.158;2024-03-07T00:54:20;29.45;;;16.08;;
5674;SDS011;2860;54.284;10.158;2024-03-07T00:56:46;29.95;;;16.27;;
5674;SDS011;2860;54.284;10.158;2024-03-07T00:59:14;30.75;;;17.67;;
5674;SDS011;2860;54.284;10.158;2024-03-07T01:01:42;23.20;;;15.70;;
5674;SDS011;2860;54.284;10.158;2024-03-07T01:04:07;31.13;;;17.40;;
5674;SDS011;2860;54.284;10.158;2024-03-07T01:06:34;30.40;;;18.63;;
5674;SDS011;2860;54.284;10.158;2024-03-07T01:09:01;28.20;;;17.17;;
5674;SDS011;2860;54.284;10.158;2024-03-07T01:11:26;33.55;;;17.45;;
5674;SDS011;2860;54.284;10.158;2024-03-07T01:13:52;29.30;;;17.15;;
5674;SDS011;2860;54.284;10.158;2024-03-07T01:16:18;30.73;;;16.35;;
5674;SDS011;2860;54.284;10.158;2024-03-07T01:18:44;29.33;;;15.95;;
5674;SDS011;2860;54.284;10.158;2024-03-07T01:21:09;27.70;;;15.23;;
5674;SDS011;2860;54.284;10.158;2024-03-07T01:23:35;29.45;;;14.10;;
5674;SDS011;2860;54.284;10.158;2024-03-07T01:26:00;19.55;;;13.82;;
5674;SDS011;2860;54.284;10.158;2024-03-07T01:28:26;24.42;;;14.25;;
5674;SDS011;2860;54.284;10.158;2024-03-07T01:30:55;22.90;;;15.95;;
5674;SDS011;2860;54.284;10.158;2024-03-07T01:33:21;20.15;;;14.43;;
5674;SDS011;2860;54.284;10.158;2024-03-07T01:35:47;19.33;;;12.68;;
5674;SDS011;2860;54.284;10.158;2024-03-07T01:38:13;26.40;;;14.10;;
5674;SDS011;2860;54.284;10.158;2024-03-07T01:40:45;17.08;;;12.40;;
5674;SDS011;2860;54.284;10.158;2024-03-07T01:43:10;21.95;;;12.88;;
5674;SDS011;2860;54.284;10.158;2024-03-07T01:45:36;19.25;;;13.45;;
5674;SDS011;2860;54.284;10.158;2024-03-07T01:48:03;22.58;;;14.93;;
5674;SDS011;2860;54.284;10.158;2024-03-07T01:50:34;18.85;;;13.90;;
5674;SDS011;2860;54.284;10.158;2024-03-07T01:53:03;27.25;;;15.00;;
5674;SDS011;2860;54.284;10.158;2024-03-07T01:55:31;18.75;;;13.63;;
5674;SDS011;2860;54.284;10.158;2024-03-07T01:57:58;25.67;;;14.68;;
5674;SDS011;2860;54.284;10.158;2024-03-07T02:00:25;21.85;;;13.98;;
5674;SDS011;2860;54.284;10.158;2024-03-07T02:02:51;18.70;;;13.50;;
5674;SDS011;2860;54.284;10.158;2024-03-07T02:05:18;19.45;;;12.05;;
5674;SDS011;2860;54.284;10.158;2024-03-07T02:07:44;15.48;;;12.85;;
5674;SDS011;2860;54.284;10.158;2024-03-07T02:10:10;21.98;;;12.55;;
5674;SDS011;2860;54.284;10.158;2024-03-07T02:12:35;15.35;;;12.07;;
5674;SDS011;2860;54.284;10.158;2024-03-07T02:15:01;14.50;;;11.80;;
5674;SDS011;2860;54.284;10.158;2024-03-07T02:17:27;21.30;;;12.05;;
5674;SDS011;2860;54.284;10.158;2024-03-07T02:19:53;17.10;;;11.98;;
5674;SDS011;2860;54.284;10.158;2024-03-07T02:22:19;18.50;;;12.52;;
5674;SDS011;2860;54.284;10.158;2024-03-07T02:24:45;19.80;;;12.43;;
5674;SDS011;2860;54.284;10.158;2024-03-07T02:27:11;16.60;;;11.50;;
5674;SDS011;2860;54.284;10.158;2024-03-07T02:29:37;20.48;;;12.02;;
5674;SDS011;2860;54.284;10.158;2024-03-07T02:32:03;20.45;;;12.25;;
5674;SDS011;2860;54.284;10.158;2024-03-07T02:34:29;17.00;;;12.55;;
5674;SDS011;2860;54.284;10.158;2024-03-07T02:36:54;21.20;;;14.57;;
5674;SDS011;2860;54.284;10.158;2024-03-07T02:39:20;20.83;;;13.77;;
5674;SDS011;2860;54.284;10.158;2024-03-07T02:41:46;21.15;;;12.32;;
5674;SDS011;2860;54.284;10.158;2024-03-07T02:44:13;18.40;;;13.85;;
5674;SDS011;2860;54.284;10.158;2024-03-07T02:46:39;22.98;;;15.00;;
5674;SDS011;2860;54.284;10.158;2024-03-07T02:49:05;19.33;;;13.20;;
5674;SDS011;2860;54.284;10.158;2024-03-07T02:51:30;27.42;;;14.43;;
5674;SDS011;2860;54.284;10.158;2024-03-07T02:53:56;22.85;;;14.38;;
5674;SDS011;2860;54.284;10.158;2024-03-07T02:56:22;32.25;;;13.73;;
5674;SDS011;2860;54.284;10.158;2024-03-07T02:58:48;20.70;;;13.82;;
5674;SDS011;2860;54.284;10.158;2024-03-07T03:01:14;32.95;;;13.88;;
5674;SDS011;2860;54.284;10.158;2024-03-07T03:03:39;23.33;;;14.63;;
5674;SDS011;2860;54.284;10.158;2024-03-07T03:06:07;20.10;;;14.90;;
5674;SDS011;2860;54.284;10.158;2024-03-07T03:08:33;19.15;;;13.20;;
5674;SDS011;2860;54.284;10.158;2024-03-07T03:10:59;18.10;;;13.43;;
5674;SDS011;2860;54.284;10.158;2024-03-07T03:13:25;25.77;;;14.82;;
5674;SDS011;2860;54.284;10.158;2024-03-07T03:15:54;24.52;;;14.05;;
5674;SDS011;2860;54.284;10.158;2024-03-07T03:18:23;21.95;;;13.25;;
5674;SDS011;2860;54.284;10.158;2024-03-07T03:20:49;15.40;;;12.77;;
5674;SDS011;2860;54.284;10.158;2024-03-07T03:23:15;25.33;;;12.70;;
5674;SDS011;2860;54.284;10.158;2024-03-07T03:25:41;19.73;;;12.63;;
5674;SDS011;2860;54.284;10.158;2024-03-07T03:28:07;23.67;;;14.10;;
5674;SDS011;2860;54.284;10.158;2024-03-07T03:30:38;14.73;;;11.63;;
5674;SDS011;2860;54.284;10.158;2024-03-07T03:33:05;18.35;;;13.27;;
5674;SDS011;2860;54.284;10.158;2024-03-07T03:35:31;20.60;;;12.38;;
5674;SDS011;2860;54.284;10.158;2024-03-07T03:37:58;15.00;;;12.63;;
5674;SDS011;2860;54.284;10.158;2024-03-07T03:40:24;24.33;;;14.35;;
5674;SDS011;2860;54.284;10.158;2024-03-07T03:42:49;24.88;;;14.45;;
5674;SDS011;2860;54.284;10.158;2024-03-07T03:45:15;17.88;;;13.38;;
5674;SDS011;2860;54.284;10.158;2024-03-07T03:47:41;18.17;;;13.45;;
5674;SDS011;2860;54.284;10.158;2024-03-07T03:50:08;15.98;;;13.80;;
5674;SDS011;2860;54.284;10.158;2024-03-07T03:52:35;17.63;;;13.43;;
5674;SDS011;2860;54.284;10.158;2024-03-07T03:55:01;20.27;;;13.80;;
5674;SDS011;2860;54.284;10.158;2024-03-07T03:57:27;18.05;;;13.48;;
5674;SDS011;2860;54.284;10.158;2024-03-07T03:59:54;19.17;;;14.02;;
5674;SDS011;2860;54.284;10.158;2024-03-07T04:02:20;18.58;;;13.65;;
5674;SDS011;2860;54.284;10.158;2024-03-07T04:04:49;16.38;;;12.27;;
5674;SDS011;2860;54.284;10.158;2024-03-07T04:07:19;27.08;;;13.48;;
5674;SDS011;2860;54.284;10.158;2024-03-07T04:09:45;21.60;;;12.40;;
5674;SDS011;2860;54.284;10.158;2024-03-07T04:12:11;16.58;;;12.40;;
5674;SDS011;2860;54.284;10.158;2024-03-07T04:14:39;24.60;;;14.05;;
5674;SDS011;2860;54.284;10.158;2024-03-07T04:17:05;22.00;;;13.23;;
5674;SDS011;2860;54.284;10.158;2024-03-07T04:19:33;23.13;;;13.20;;
5674;SDS011;2860;54.284;10.158;2024-03-07T04:21:59;18.33;;;12.60;;
5674;SDS011;2860;54.284;10.158;2024-03-07T04:24:25;20.90;;;13.35;;
5674;SDS011;2860;54.284;10.158;2024-03-07T04:26:50;14.90;;;11.20;;
5674;SDS011;2860;54.284;10.158;2024-03-07T04:29:18;19.95;;;11.93;;
5674;SDS011;2860;54.284;10.158;2024-03-07T04:31:44;17.70;;;11.45;;
5674;SDS011;2860;54.284;10.158;2024-03-07T04:34:09;15.38;;;11.15;;
5674;SDS011;2860;54.284;10.158;2024-03-07T04:36:35;12.63;;;10.23;;
5674;SDS011;2860;54.284;10.158;2024-03-07T04:39:00;21.42;;;12.10;;
5674;SDS011;2860;54.284;10.158;2024-03-07T04:41:29;17.73;;;11.70;;
5674;SDS011;2860;54.284;10.158;2024-03-07T04:43:55;16.27;;;10.82;;
5674;SDS011;2860;54.284;10.158;2024-03-07T04:46:20;13.70;;;10.93;;
5674;SDS011;2860;54.284;10.158;2024-03-07T04:48:46;17.67;;;11.07;;
5674;SDS011;2860;54.284;10.158;2024-03-07T04:51:11;14.27;;;11.15;;
5674;SDS011;2860;54.284;10.158;2024-03-07T04:53:37;16.60;;;10.88;;
5674;SDS011;2860;54.284;10.158;2024-03-07T04:56:07;14.00;;;11.00;;
5674;SDS011;2860;54.284;10.158;2024-03-07T04:58:34;16.25;;;11.55;;
5674;SDS011;2860;54.284;10.158;2024-03-07T05:01:00;15.52;;;11.23;;
5674;SDS011;2860;54.284;10.158;2024-03-07T05:03:27;16.85;;;11.48;;
5674;SDS011;2860;54.284;10.158;2024-03-07T05:05:52;13.95;;;10.68;;
5674;SDS011;2860;54.284;10.158;2024-03-07T05:08:18;17.98;;;12.48;;
5674;SDS011;2860;54.284;10.158;2024-03-07T05:10:43;17.08;;;12.10;;
5674;SDS011;2860;54.284;10.158;2024-03-07T05:13:09;15.25;;;12.13;;
5674;SDS011;2860;54.284;10.158;2024-03-07T05:15:35;18.33;;;13.15;;
5674;SDS011;2860;54.284;10.158;2024-03-07T05:18:01;17.23;;;12.93;;
5674;SDS011;2860;54.284;10.158;2024-03-07T05:20:26;19.38;;;13.23;;
5674;SDS011;2860;54.284;10.158;2024-03-07T05:22:53;20.48;;;12.88;;
5674;SDS011;2860;54.284;10.158;2024-03-07T05:25:19;18.67;;;13.20;;
5674;SDS011;2860;54.284;10.158;2024-03-07T05:27:47;23.20;;;13.10;;
5674;SDS011;2860;54.284;10.158;2024-03-07T05:30:15;24.10;;;14.43;;
5674;SDS011;2860;54.284;10.158;2024-03-07T05:32:40;15.50;;;13.15;;
5674;SDS011;2860;54.284;10.158;2024-03-07T05:35:06;18.90;;;12.23;;
5674;SDS011;2860;54.284;10.158;2024-03-07T05:37:32;20.38;;;12.55;;
5674;SDS011;2860;54.284;10.158;2024-03-07T05:39:58;24.65;;;13.73;;
5674;SDS011;2860;54.284;10.158;2024-03-07T05:42:24;17.25;;;12.15;;
5674;SDS011;2860;54.284;10.158;2024-03-07T05:44:50;17.33;;;12.68;;
5674;SDS011;2860;54.284;10.158;2024-03-07T05:47:16;20.25;;;14.40;;
5674;SDS011;2860;54.284;10.158;2024-03-07T05:49:42;21.17;;;13.82;;
5674;SDS011;2860;54.284;10.158;2024-03-07T05:52:08;17.52;;;12.13;;
5674;SDS011;2860;54.284;10.158;2024-03-07T05:54:34;15.60;;;13.20;;
5674;SDS011;2860;54.284;10.158;2024-03-07T05:57:00;20.35;;;13.23;;
5674;SDS011;2860;54.284;10.158;2024-03-07T05:59:26;23.27;;;12.93;;
5674;SDS011;2860;54.284;10.158;2024-03-07T06:01:55;15.35;;;12.45;;
5674;SDS011;2860;54.284;10.158;2024-03-07T06:04:21;16.98;;;13.68;;
5674;SDS011;2860;54.284;10.158;2024-03-07T06:06:47;21.27;;;14.52;;
5674;SDS011;2860;54.284;10.158;2024-03-07T06:09:13;17.48;;;12.98;;
5674;SDS011;2860;54.284;10.158;2024-03-07T06:11:40;19.73;;;13.77;;
5674;SDS011;2860;54.284;10.158;2024-03-07T06:14:09;23.67;;;13.23;;
5674;SDS011;2860;54.284;10.158;2024-03-07T06:16:36;21.38;;;14.90;;
5674;SDS011;2860;54.284;10.158;2024-03-07T06:19:03;14.43;;;12.43;;
5674;SDS011;2860;54.284;10.158;2024-03-07T06:21:31;19.08;;;13.32;;
5674;SDS011;2860;54.284;10.158;2024-03-07T06:23:58;18.85;;;12.95;;
5674;SDS011;2860;54.284;10.158;2024-03-07T06:26:30;16.63;;;12.05;;
5674;SDS011;2860;54.284;10.158;2024-03-07T06:29:12;17.77;;;13.85;;
5674;SDS011;2860;54.284;10.158;2024-03-07T06:31:39;19.08;;;13.35;;
5674;SDS011;2860;54.284;10.158;2024-03-07T06:34:05;18.92;;;13.52;;
5674;SDS011;2860;54.284;10.158;2024-03-07T06:36:31;19.08;;;12.52;;
5674;SDS011;2860;54.284;10.158;2024-03-07T06:38:57;23.85;;;13.13;;
5674;SDS011;2860;54.284;10.158;2024-03-07T06:41:23;17.40;;;12.50;;
5674;SDS011;2860;54.284;10.158;2024-03-07T06:43:50;14.38;;;12.45;;
5674;SDS011;2860;54.284;10.158;2024-03-07T06:46:18;19.42;;;13.25;;
5674;SDS011;2860;54.284;10.158;2024-03-07T06:48:45;17.73;;;13.23;;
5674;SDS011;2860;54.284;10.158;2024-03-07T06:51:10;18.15;;;13.32;;
5674;SDS011;2860;54.284;10.158;2024-03-07T06:53:36;16.13;;;13.05;;
5674;SDS011;2860;54.284;10.158;2024-03-07T06:56:01;22.50;;;12.50;;
5674;SDS011;2860;54.284;10.158;2024-03-07T06:58:27;15.55;;;12.70;;
5674;SDS011;2860;54.284;10.158;2024-03-07T07:00:52;17.23;;;12.20;;
5674;SDS011;2860;54.284;10.158;2024-03-07T07:03:23;19.05;;;16.60;;
5674;SDS011;2860;54.284;10.158;2024-03-07T07:05:49;19.67;;;13.32;;
5674;SDS011;2860;54.284;10.158;2024-03-07T07:08:15;18.48;;;12.73;;
5674;SDS011;2860;54.284;10.158;2024-03-07T07:10:41;19.58;;;13.38;;
5674;SDS011;2860;54.284;10.158;2024-03-07T07:13:07;21.15;;;14.32;;
5674;SDS011;2860;54.284;10.158;2024-03-07T07:15:33;16.60;;;12.65;;
5674;SDS011;2860;54.284;10.158;2024-03-07T07:17:59;16.35;;;12.60;;
5674;SDS011;2860;54.284;10.158;2024-03-07T07:20:27;22.30;;;15.00;;
5674;SDS011;2860;54.284;10.158;2024-03-07T07:22:53;20.20;;;12.82;;
5674;SDS011;2860;54.284;10.158;2024-03-07T07:25:19;16.02;;;13.18;;
5674;SDS011;2860;54.284;10.158;2024-03-07T07:27:47;20.45;;;13.50;;
5674;SDS011;2860;54.284;10.158;2024-03-07T07:30:14;23.63;;;14.13;;
5674;SDS011;2860;54.284;10.158;2024-03-07T07:32:41;19.83;;;13.27;;
5674;SDS011;2860;54.284;10.158;2024-03-07T07:35:08;22.17;;;13.88;;
5674;SDS011;2860;54.284;10.158;2024-03-07T07:37:46;19.38;;;15.57;;
5674;SDS011;2860;54.284;10.158;2024-03-07T07:40:14;16.58;;;13.30;;
5674;SDS011;2860;54.284;10.158;2024-03-07T07:42:46;24.73;;;14.85;;
5674;SDS011;2860;54.284;10.158;2024-03-07T07:45:13;18.50;;;13.43;;
5674;SDS011;2860;54.284;10.158;2024-03-07T07:47:40;19.75;;;14.90;;
5674;SDS011;2860;54.284;10.158;2024-03-07T07:50:09;20.33;;;15.02;;
5674;SDS011;2860;54.284;10.158;2024-03-07T07:52:45;19.20;;;15.27;;
5674;SDS011;2860;54.284;10.158;2024-03-07T07:55:18;23.20;;;15.35;;
5674;SDS011;2860;54.284;10.158;2024-03-07T07:57:46;24.30;;;15.40;;
5674;SDS011;2860;54.284;10.158;2024-03-07T08:00:16;21.67;;;15.63;;
5674;SDS011;2860;54.284;10.158;2024-03-07T08:02:57;21.45;;;14.95;;
5674;SDS011;2860;54.284;10.158;2024-03-07T08:05:25;19.48;;;15.45;;
5674;SDS011;2860;54.284;10.158;2024-03-07T08:07:53;27.45;;;15.68;;
5674;SDS011;2860;54.284;10.158;2024-03-07T08:10:20;21.98;;;16.60;;
5674;SDS011;2860;54.284;10.158;2024-03-07T08:12:49;22.48;;;16.27;;
5674;SDS011;2860;54.284;10.158;2024-03-07T08:15:15;24.65;;;14.15;;
5674;SDS011;2860;54.284;10.158;2024-03-07T08:17:41;22.27;;;15.73;;
5674;SDS011;2860;54.284;10.158;2024-03-07T08:20:09;29.05;;;16.88;;
5674;SDS011;2860;54.284;10.158;2024-03-07T08:22:48;20.75;;;15.20;;
5674;SDS011;2860;54.284;10.158;2024-03-07T08:25:17;26.23;;;15.80;;
5674;SDS011;2860;54.284;10.158;2024-03-07T08:27:48;23.63;;;16.13;;
5674;SDS011;2860;54.284;10.158;2024-03-07T08:30:15;26.33;;;15.55;;
5674;SDS011;2860;54.284;10.158;2024-03-07T08:32:41;21.60;;;15.98;;
5674;SDS011;2860;54.284;10.158;2024-03-07T08:35:09;22.88;;;16.70;;
5674;SDS011;2860;54.284;10.158;2024-03-07T08:37:36;27.73;;;17.33;;
5674;SDS011;2860;54.284;10.158;2024-03-07T08:40:03;33.65;;;16.83;;
5674;SDS011;2860;54.284;10.158;2024-03-07T08:42:30;23.35;;;16.00;;
5674;SDS011;2860;54.284;10.158;2024-03-07T08:44:58;22.42;;;15.95;;
5674;SDS011;2860;54.284;10.158;2024-03-07T08:47:24;28.17;;;17.83;;
5674;SDS011;2860;54.284;10.158;2024-03-07T08:49:50;30.42;;;16.55;;
5674;SDS011;2860;54.284;10.158;2024-03-07T08:52:16;29.40;;;17.05;;
5674;SDS011;2860;54.284;10.158;2024-03-07T08:54:41;25.42;;;18.10;;
5674;SDS011;2860;54.284;10.158;2024-03-07T08:57:09;30.15;;;17.35;;
5674;SDS011;2860;54.284;10.158;2024-03-07T08:59:34;28.50;;;16.70;;
5674;SDS011;2860;54.284;10.158;2024-03-07T09:02:00;26.80;;;17.35;;
5674;SDS011;2860;54.284;10.158;2024-03-07T09:04:26;36.53;;;17.63;;
5674;SDS011;2860;54.284;10.158;2024-03-07T09:06:53;27.60;;;16.88;;
5674;SDS011;2860;54.284;10.158;2024-03-07T09:09:19;20.70;;;15.57;;
5674;SDS011;2860;54.284;10.158;2024-03-07T09:11:45;26.95;;;17.83;;
5674;SDS011;2860;54.284;10.158;2024-03-07T09:14:10;23.45;;;15.77;;
5674;SDS011;2860;54.284;10.158;2024-03-07T09:16:36;28.05;;;17.15;;
5674;SDS011;2860;54.284;10.158;2024-03-07T09:19:01;31.27;;;18.25;;
5674;SDS011;2860;54.284;10.158;2024-03-07T09:21:28;24.35;;;17.35;;
5674;SDS011;2860;54.284;10.158;2024-03-07T09:23:54;25.55;;;16.15;;
5674;SDS011;2860;54.284;10.158;2024-03-07T09:26:20;25.63;;;16.65;;
5674;SDS011;2860;54.284;10.158;2024-03-07T09:28:45;26.92;;;17.23;;
5674;SDS011;2860;54.284;10.158;2024-03-07T09:31:11;31.73;;;18.35;;
5674;SDS011;2860;54.284;10.158;2024-03-07T09:33:39;28.02;;;17.90;;
5674;SDS011;2860;54.284;10.158;2024-03-07T09:36:05;29.15;;;18.27;;
5674;SDS011;2860;54.284;10.158;2024-03-07T09:38:31;25.23;;;16.05;;
5674;SDS011;2860;54.284;10.158;2024-03-07T09:40:57;27.48;;;17.15;;
5674;SDS011;2860;54.284;10.158;2024-03-07T09:43:24;29.83;;;17.50;;
5674;SDS011;2860;54.284;10.158;2024-03-07T09:45:53;25.77;;;17.00;;
5674;SDS011;2860;54.284;10.158;2024-03-07T09:48:19;27.27;;;17.00;;
5674;SDS011;2860;54.284;10.158;2024-03-07T09:50:45;23.95;;;15.18;;
5674;SDS011;2860;54.284;10.158;2024-03-07T09:53:13;26.02;;;16.52;;
5674;SDS011;2860;54.284;10.158;2024-03-07T09:55:40;31.40;;;15.90;;
5674;SDS011;2860;54.284;10.158;2024-03-07T09:58:06;28.13;;;15.10;;
5674;SDS011;2860;54.284;10.158;2024-03-07T10:00:35;22.33;;;16.00;;
5674;SDS011;2860;54.284;10.158;2024-03-07T10:03:05;23.80;;;16.77;;
5674;SDS011;2860;54.284;10.158;2024-03-07T10:05:33;23.65;;;16.83;;
5674;SDS011;2860;54.284;10.158;2024-03-07T10:07:59;24.90;;;16.33;;
5674;SDS011;2860;54.284;10.158;2024-03-07T10:10:26;26.52;;;18.42;;
5674;SDS011;2860;54.284;10.158;2024-03-07T10:12:52;22.27;;;17.20;;
5674;SDS011;2860;54.284;10.158;2024-03-07T10:15:27;21.02;;;16.05;;
5674;SDS011;2860;54.284;10.158;2024-03-07T10:17:56;31.67;;;16.50;;
5674;SDS011;2860;54.284;10.158;2024-03-07T10:20:21;18.73;;;13.85;;
5674;SDS011;2860;54.284;10.158;2024-03-07T10:22:48;23.58;;;14.60;;
5674;SDS011;2860;54.284;10.158;2024-03-07T10:25:17;21.27;;;15.85;;
5674;SDS011;2860;54.284;10.158;2024-03-07T10:27:45;24.83;;;14.35;;
5674;SDS011;2860;54.284;10.158;2024-03-07T10:30:13;22.05;;;14.48;;
5674;SDS011;2860;54.284;10.158;2024-03-07T10:32:45;24.55;;;16.38;;
5674;SDS011;2860;54.284;10.158;2024-03-07T10:35:21;25.73;;;16.10;;
5674;SDS011;2860;54.284;10.158;2024-03-07T10:37:52;20.60;;;14.45;;
5674;SDS011;2860;54.284;10.158;2024-03-07T10:40:19;20.42;;;13.65;;
5674;SDS011;2860;54.284;10.158;2024-03-07T10:42:47;19.48;;;14.73;;
5674;SDS011;2860;54.284;10.158;2024-03-07T10:45:19;27.70;;;14.45;;
5674;SDS011;2860;54.284;10.158;2024-03-07T10:47:50;13.65;;;9.80;;
5674;SDS011;2860;54.284;10.158;2024-03-07T10:50:24;19.67;;;13.30;;
5674;SDS011;2860;54.284;10.158;2024-03-07T10:53:07;21.42;;;13.85;;
5674;SDS011;2860;54.284;10.158;2024-03-07T11:01:02;20.02;;;12.43;;
5674;SDS011;2860;54.284;10.158;2024-03-07T11:03:31;19.83;;;13.95;;
5674;SDS011;2860;54.284;10.158;2024-03-07T11:05:58;16.17;;;13.25;;
5674;SDS011;2860;54.284;10.158;2024-03-07T11:08:30;21.38;;;13.38;;
5674;SDS011;2860;54.284;10.158;2024-03-07T11:10:57;18.73;;;14.23;;
5674;SDS011;2860;54.284;10.158;2024-03-07T11:13:22;15.98;;;13.77;;
5674;SDS011;2860;54.284;10.158;2024-03-07T11:15:49;18.45;;;13.50;;
5674;SDS011;2860;54.284;10.158;2024-03-07T11:18:16;20.27;;;13.32;;
5674;SDS011;2860;54.284;10.158;2024-03-07T11:20:42;21.80;;;15.63;;
5674;SDS011;2860;54.284;10.158;2024-03-07T11:23:27;17.60;;;13.40;;
5674;SDS011;2860;54.284;10.158;2024-03-07T11:26:06;18.05;;;13.48;;
5674;SDS011;2860;54.284;10.158;2024-03-07T11:28:33;22.98;;;13.95;;
5674;SDS011;2860;54.284;10.158;2024-03-07T11:33:40;16.95;;;13.60;;
5674;SDS011;2860;54.284;10.158;2024-03-07T11:36:10;19.05;;;13.20;;
5674;SDS011;2860;54.284;10.158;2024-03-07T11:38:45;19.10;;;13.38;;
5674;SDS011;2860;54.284;10.158;2024-03-07T11:41:13;27.52;;;14.23;;
5674;SDS011;2860;54.284;10.158;2024-03-07T11:43:40;15.80;;;12.52;;
5674;SDS011;2860;54.284;10.158;2024-03-07T11:46:07;18.67;;;13.00;;
5674;SDS011;2860;54.284;10.158;2024-03-07T11:48:41;20.98;;;13.32;;
5674;SDS011;2860;54.284;10.158;2024-03-07T11:51:07;21.15;;;14.60;;
5674;SDS011;2860;54.284;10.158;2024-03-07T11:53:39;16.65;;;12.85;;
5674;SDS011;2860;54.284;10.158;2024-03-07T11:56:06;16.83;;;12.63;;
5674;SDS011;2860;54.284;10.158;2024-03-07T11:58:37;20.10;;;13.35;;
5674;SDS011;2860;54.284;10.158;2024-03-07T12:01:05;18.33;;;12.95;;
5674;SDS011;2860;54.284;10.158;2024-03-07T12:03:35;19.80;;;13.50;;
5674;SDS011;2860;54.284;10.158;2024-03-07T12:06:02;19.70;;;13.65;;
5674;SDS011;2860;54.284;10.158;2024-03-07T12:08:28;14.65;;;12.70;;
5674;SDS011;2860;54.284;10.158;2024-03-07T12:10:54;20.15;;;13.45;;
5674;SDS011;2860;54.284;10.158;2024-03-07T12:13:21;15.77;;;11.88;;
5674;SDS011;2860;54.284;10.158;2024-03-07T12:15:47;21.60;;;13.23;;
5674;SDS011;2860;54.284;10.158;2024-03-07T12:18:16;17.52;;;12.93;;
5674;SDS011;2860;54.284;10.158;2024-03-07T12:20:43;20.52;;;13.35;;
5674;SDS011;2860;54.284;10.158;2024-03-07T12:23:16;22.27;;;14.98;;
5674;SDS011;2860;54.284;10.158;2024-03-07T12:25:44;15.93;;;14.07;;
5674;SDS011;2860;54.284;10.158;2024-03-07T12:28:13;23.23;;;14.50;;
5674;SDS011;2860;54.284;10.158;2024-03-07T12:33:11;18.02;;;13.15;;
5674;SDS011;2860;54.284;10.158;2024-03-07T12:35:38;20.08;;;14.52;;
5674;SDS011;2860;54.284;10.158;2024-03-07T12:38:07;24.83;;;15.18;;
5674;SDS011;2860;54.284;10.158;2024-03-07T12:40:35;14.88;;;13.27;;
5674;SDS011;2860;54.284;10.158;2024-03-07T12:43:16;22.10;;;14.07;;
5674;SDS011;2860;54.284;10.158;2024-03-07T12:45:49;18.40;;;15.15;;
5674;SDS011;2860;54.284;10.158;2024-03-07T12:48:16;17.17;;;12.45;;
5674;SDS011;2860;54.284;10.158;2024-03-07T12:50:44;20.60;;;15.52;;
5674;SDS011;2860;54.284;10.158;2024-03-07T12:53:10;20.08;;;15.23;;
5674;SDS011;2860;54.284;10.158;2024-03-07T12:55:39;18.27;;;14.70;;
5674;SDS011;2860;54.284;10.158;2024-03-07T12:58:08;18.95;;;14.00;;
5674;SDS011;2860;54.284;10.158;2024-03-07T13:00:36;17.48;;;14.68;;
5674;SDS011;2860;54.284;10.158;2024-03-07T13:03:02;19.25;;;15.10;;
5674;SDS011;2860;54.284;10.158;2024-03-07T13:05:29;28.75;;;15.55;;
5674;SDS011;2860;54.284;10.158;2024-03-07T13:07:54;18.55;;;14.90;;
5674;SDS011;2860;54.284;10.158;2024-03-07T13:10:20;22.35;;;15.75;;
5674;SDS011;2860;54.284;10.158;2024-03-07T13:12:49;23.05;;;16.38;;
5674;SDS011;2860;54.284;10.158;2024-03-07T13:15:16;22.35;;;15.73;;
5674;SDS011;2860;54.284;10.158;2024-03-07T13:17:43;22.17;;;16.02;;
5674;SDS011;2860;54.284;10.158;2024-03-07T13:20:09;23.48;;;15.32;;
5674;SDS011;2860;54.284;10.158;2024-03-07T13:25:08;20.10;;;15.85;;
5674;SDS011;2860;54.284;10.158;2024-03-07T13:27:44;23.67;;;16.98;;
5674;SDS011;2860;54.284;10.158;2024-03-07T13:30:24;22.52;;;16.02;;
5674;SDS011;2860;54.284;10.158;2024-03-07T13:32:54;21.00;;;15.82;;
5674;SDS011;2860;54.284;10.158;2024-03-07T13:35:20;19.77;;;15.85;;
5674;SDS011;2860;54.284;10.158;2024-03-07T13:37:46;25.20;;;17.52;;
5674;SDS011;2860;54.284;10.158;2024-03-07T13:40:12;17.08;;;14.88;;
5674;SDS011;2860;54.284;10.158;2024-03-07T13:42:48;22.45;;;16.05;;
5674;SDS011;2860;54.284;10.158;2024-03-07T13:45:16;22.08;;;15.38;;
5674;SDS011;2860;54.284;10.158;2024-03-07T13:47:43;27.15;;;17.33;;
5674;SDS011;2860;54.284;10.158;2024-03-07T13:50:09;19.75;;;15.20;;
5674;SDS011;2860;54.284;10.158;2024-03-07T13:52:37;20.98;;;15.10;;
5674;SDS011;2860;54.284;10.158;2024-03-07T13:55:08;20.52;;;15.48;;
5674;SDS011;2860;54.284;10.158;2024-03-07T13:57:41;21.80;;;15.65;;
5674;SDS011;2860;54.284;10.158;2024-03-07T14:05:56;29.73;;;17.33;;
5674;SDS011;2860;54.284;10.158;2024-03-07T14:08:39;23.83;;;15.82;;
5674;SDS011;2860;54.284;10.158;2024-03-07T14:20:50;27.25;;;16.08;;
5674;SDS011;2860;54.284;10.158;2024-03-07T14:23:38;24.85;;;15.80;;
5674;SDS011;2860;54.284;10.158;2024-03-07T14:26:52;26.95;;;16.33;;
5674;SDS011;2860;54.284;10.158;2024-03-07T14:29:43;20.55;;;16.00;;
5674;SDS011;2860;54.284;10.158;2024-03-07T14:32:28;24.38;;;16.15;;
5674;SDS011;2860;54.284;10.158;2024-03-07T14:34:57;28.42;;;17.45;;
5674;SDS011;2860;54.284;10.158;2024-03-07T14:37:45;24.52;;;15.60;;
5674;SDS011;2860;54.284;10.158;2024-03-07T14:40:17;28.65;;;16.33;;
5674;SDS011;2860;54.284;10.158;2024-03-07T14:42:44;27.02;;;16.70;;
5674;SDS011;2860;54.284;10.158;2024-03-07T14:45:13;22.90;;;15.88;;
5674;SDS011;2860;54.284;10.158;2024-03-07T14:47:44;23.42;;;16.60;;
5674;SDS011;2860;54.284;10.158;2024-03-07T14:50:11;23.15;;;17.02;;
5674;SDS011;2860;54.284;10.158;2024-03-07T14:52:37;27.05;;;17.65;;
5674;SDS011;2860;54.284;10.158;2024-03-07T14:55:07;26.45;;;17.75;;
5674;SDS011;2860;54.284;10.158;2024-03-07T14:57:33;27.30;;;17.95;;
5674;SDS011;2860;54.284;10.158;2024-03-07T14:59:59;24.33;;;17.77;;
5674;SDS011;2860;54.284;10.158;2024-03-07T15:02:24;25.52;;;16.17;;
5674;SDS011;2860;54.284;10.158;2024-03-07T15:04:51;25.55;;;16.52;;